sensor_id;sensor_type;location;lat;lon;timestamp;temperature;humidity
27188;DHT22;14708;50.872;5.306;2023-02-16T00:03:41;20.80;56.30
27188;DHT22;14708;50.872;5.306;2023-02-16T00:06:07;20.80;56.30
27188;DHT22;14708;50.872;5.306;2023-02-16T00:08:39;20.80;56.40
27188;DHT22;14708;50.872;5.306;2023-02-16T00:11:04;20.80;56.40
27188;DHT22;14708;50.872;5.306;2023-02-16T00:13:49;20.70;56.90
27188;DHT22;14708;50.872;5.306;2023-02-16T00:16:22;20.70;56.50
27188;DHT22;14708;50.872;5.306;2023-02-16T00:18:48;20.70;56.40
27188;DHT22;14708;50.872;5.306;2023-02-16T00:27:58;20.70;56.40
27188;DHT22;14708;50.872;5.306;2023-02-16T00:30:24;20.60;56.50
27188;DHT22;14708;50.872;5.306;2023-02-16T00:32:50;20.60;56.40
27188;DHT22;14708;50.872;5.306;2023-02-16T00:35:17;20.60;56.50
27188;DHT22;14708;50.872;5.306;2023-02-16T00:41:17;20.60;56.60
27188;DHT22;14708;50.872;5.306;2023-02-16T00:44:02;20.50;56.40
27188;DHT22;14708;50.872;5.306;2023-02-16T00:46:28;20.50;56.50
27188;DHT22;14708;50.872;5.306;2023-02-16T00:48:54;20.50;56.50
27188;DHT22;14708;50.872;5.306;2023-02-16T00:51:19;20.50;56.50
27188;DHT22;14708;50.872;5.306;2023-02-16T00:53:45;20.50;56.50
27188;DHT22;14708;50.872;5.306;2023-02-16T00:56:13;20.50;56.50
27188;DHT22;14708;50.872;5.306;2023-02-16T00:58:42;20.50;56.50
27188;DHT22;14708;50.872;5.306;2023-02-16T01:01:12;20.50;56.50
27188;DHT22;14708;50.872;5.306;2023-02-16T01:03:39;20.40;56.40
27188;DHT22;14708;50.872;5.306;2023-02-16T01:06:05;20.50;56.50
27188;DHT22;14708;50.872;5.306;2023-02-16T01:08:49;20.40;56.40
27188;DHT22;14708;50.872;5.306;2023-02-16T01:11:34;20.40;56.90
27188;DHT22;14708;50.872;5.306;2023-02-16T01:14:00;20.40;56.50
27188;DHT22;14708;50.872;5.306;2023-02-16T01:16:32;20.40;56.40
27188;DHT22;14708;50.872;5.306;2023-02-16T01:18:59;20.40;56.20
27188;DHT22;14708;50.872;5.306;2023-02-16T01:21:25;20.40;56.40
27188;DHT22;14708;50.872;5.306;2023-02-16T01:23:50;20.40;56.30
27188;DHT22;14708;50.872;5.306;2023-02-16T01:26:19;20.30;56.30
27188;DHT22;14708;50.872;5.306;2023-02-16T01:28:45;20.30;56.30
27188;DHT22;14708;50.872;5.306;2023-02-16T01:31:12;20.30;56.30
27188;DHT22;14708;50.872;5.306;2023-02-16T01:33:39;20.30;56.40
27188;DHT22;14708;50.872;5.306;2023-02-16T01:36:10;20.20;56.40
27188;DHT22;14708;50.872;5.306;2023-02-16T01:38:41;20.30;56.50
27188;DHT22;14708;50.872;5.306;2023-02-16T01:41:19;20.30;56.40
27188;DHT22;14708;50.872;5.306;2023-02-16T01:43:58;20.30;56.40
27188;DHT22;14708;50.872;5.306;2023-02-16T01:56:51;20.10;56.40
27188;DHT22;14708;50.872;5.306;2023-02-16T02:02:03;20.10;56.30
27188;DHT22;14708;50.872;5.306;2023-02-16T02:04:39;20.10;56.40
27188;DHT22;14708;50.872;5.306;2023-02-16T02:14:19;20.10;56.10
27188;DHT22;14708;50.872;5.306;2023-02-16T02:16:58;20.10;55.90
27188;DHT22;14708;50.872;5.306;2023-02-16T02:19:25;20.10;56.10
27188;DHT22;14708;50.872;5.306;2023-02-16T02:28:21;20.10;56.10
27188;DHT22;14708;50.872;5.306;2023-02-16T02:31:03;20.00;56.20
27188;DHT22;14708;50.872;5.306;2023-02-16T02:34:10;20.00;56.10
27188;DHT22;14708;50.872;5.306;2023-02-16T02:36:48;20.00;56.20
27188;DHT22;14708;50.872;5.306;2023-02-16T02:42:00;20.00;56.30
27188;DHT22;14708;50.872;5.306;2023-02-16T02:44:45;20.00;56.20
27188;DHT22;14708;50.872;5.306;2023-02-16T02:47:13;20.00;56.30
27188;DHT22;14708;50.872;5.306;2023-02-16T02:49:38;20.00;56.30
27188;DHT22;14708;50.872;5.306;2023-02-16T02:52:04;20.00;56.30
27188;DHT22;14708;50.872;5.306;2023-02-16T02:54:33;19.90;56.40
27188;DHT22;14708;50.872;5.306;2023-02-16T02:57:44;19.90;56.30
27188;DHT22;14708;50.872;5.306;2023-02-16T03:24:08;19.80;56.00
27188;DHT22;14708;50.872;5.306;2023-02-16T03:26:56;19.80;56.20
27188;DHT22;14708;50.872;5.306;2023-02-16T03:29:42;19.80;56.30
27188;DHT22;14708;50.872;5.306;2023-02-16T03:32:08;19.80;56.20
27188;DHT22;14708;50.872;5.306;2023-02-16T03:34:35;19.80;56.30
27188;DHT22;14708;50.872;5.306;2023-02-16T03:37:02;19.80;56.30
27188;DHT22;14708;50.872;5.306;2023-02-16T03:39:29;19.70;56.20
27188;DHT22;14708;50.872;5.306;2023-02-16T04:08:25;19.60;56.20
27188;DHT22;14708;50.872;5.306;2023-02-16T04:10:50;19.60;56.10
27188;DHT22;14708;50.872;5.306;2023-02-16T04:13:16;19.60;56.10
27188;DHT22;14708;50.872;5.306;2023-02-16T04:15:42;19.60;56.00
27188;DHT22;14708;50.872;5.306;2023-02-16T04:18:07;19.60;56.20
27188;DHT22;14708;50.872;5.306;2023-02-16T04:20:34;19.60;56.10
27188;DHT22;14708;50.872;5.306;2023-02-16T04:23:01;19.60;56.10
27188;DHT22;14708;50.872;5.306;2023-02-16T04:25:27;19.60;56.60
27188;DHT22;14708;50.872;5.306;2023-02-16T04:27:53;19.60;56.10
27188;DHT22;14708;50.872;5.306;2023-02-16T04:30:22;19.60;56.00
27188;DHT22;14708;50.872;5.306;2023-02-16T04:32:57;19.50;56.00
27188;DHT22;14708;50.872;5.306;2023-02-16T04:35:23;19.50;55.90
27188;DHT22;14708;50.872;5.306;2023-02-16T04:37:49;19.60;55.90
27188;DHT22;14708;50.872;5.306;2023-02-16T04:40:16;19.50;55.80
27188;DHT22;14708;50.872;5.306;2023-02-16T04:42:42;19.50;55.80
27188;DHT22;14708;50.872;5.306;2023-02-16T05:05:16;19.40;55.90
27188;DHT22;14708;50.872;5.306;2023-02-16T05:07:42;19.40;55.80
27188;DHT22;14708;50.872;5.306;2023-02-16T05:10:10;19.40;55.60
27188;DHT22;14708;50.872;5.306;2023-02-16T05:12:36;19.40;55.70
27188;DHT22;14708;50.872;5.306;2023-02-16T05:15:20;19.40;55.70
27188;DHT22;14708;50.872;5.306;2023-02-16T05:28:22;19.40;55.80
27188;DHT22;14708;50.872;5.306;2023-02-16T05:30:47;19.40;55.80
27188;DHT22;14708;50.872;5.306;2023-02-16T05:33:13;19.30;55.70
27188;DHT22;14708;50.872;5.306;2023-02-16T05:35:39;19.40;55.70
27188;DHT22;14708;50.872;5.306;2023-02-16T05:38:04;19.40;55.20
27188;DHT22;14708;50.872;5.306;2023-02-16T05:40:30;19.50;52.90
27188;DHT22;14708;50.872;5.306;2023-02-16T05:42:57;19.40;54.80
27188;DHT22;14708;50.872;5.306;2023-02-16T05:45:22;19.40;53.90
27188;DHT22;14708;50.872;5.306;2023-02-16T05:47:48;19.40;54.20
27188;DHT22;14708;50.872;5.306;2023-02-16T05:50:13;19.40;54.10
27188;DHT22;14708;50.872;5.306;2023-02-16T05:52:39;19.40;54.90
27188;DHT22;14708;50.872;5.306;2023-02-16T06:01:49;19.40;54.30
27188;DHT22;14708;50.872;5.306;2023-02-16T06:04:14;19.30;53.80
27188;DHT22;14708;50.872;5.306;2023-02-16T06:06:40;19.30;53.90
27188;DHT22;14708;50.872;5.306;2023-02-16T06:09:07;19.30;53.90
27188;DHT22;14708;50.872;5.306;2023-02-16T06:11:33;19.40;53.90
27188;DHT22;14708;50.872;5.306;2023-02-16T06:14:15;19.50;53.60
27188;DHT22;14708;50.872;5.306;2023-02-16T06:16:45;19.50;53.40
27188;DHT22;14708;50.872;5.306;2023-02-16T06:19:12;19.50;53.80
27188;DHT22;14708;50.872;5.306;2023-02-16T06:21:38;19.60;53.90
27188;DHT22;14708;50.872;5.306;2023-02-16T06:24:05;19.60;54.00
27188;DHT22;14708;50.872;5.306;2023-02-16T06:26:32;19.80;54.00
27188;DHT22;14708;50.872;5.306;2023-02-16T06:28:57;20.00;53.70
27188;DHT22;14708;50.872;5.306;2023-02-16T06:34:45;20.20;53.60
27188;DHT22;14708;50.872;5.306;2023-02-16T06:37:11;20.40;53.40
27188;DHT22;14708;50.872;5.306;2023-02-16T06:39:36;20.40;53.50
27188;DHT22;14708;50.872;5.306;2023-02-16T06:42:02;20.50;53.60
27188;DHT22;14708;50.872;5.306;2023-02-16T06:51:30;20.40;53.70
27188;DHT22;14708;50.872;5.306;2023-02-16T06:53:56;20.40;53.80
27188;DHT22;14708;50.872;5.306;2023-02-16T06:56:22;20.30;53.80
27188;DHT22;14708;50.872;5.306;2023-02-16T06:58:48;20.20;53.80
27188;DHT22;14708;50.872;5.306;2023-02-16T07:01:14;20.20;53.90
27188;DHT22;14708;50.872;5.306;2023-02-16T07:03:40;20.10;54.20
27188;DHT22;14708;50.872;5.306;2023-02-16T07:29:33;20.00;54.50
27188;DHT22;14708;50.872;5.306;2023-02-16T07:31:59;20.20;54.40
27188;DHT22;14708;50.872;5.306;2023-02-16T07:34:24;20.30;54.20
27188;DHT22;14708;50.872;5.306;2023-02-16T07:36:50;20.20;54.20
27188;DHT22;14708;50.872;5.306;2023-02-16T07:39:15;20.20;54.10
27188;DHT22;14708;50.872;5.306;2023-02-16T07:41:41;20.40;53.90
27188;DHT22;14708;50.872;5.306;2023-02-16T07:44:07;20.30;53.50
27188;DHT22;14708;50.872;5.306;2023-02-16T07:46:33;20.20;53.60
27188;DHT22;14708;50.872;5.306;2023-02-16T07:48:58;20.30;54.10
27188;DHT22;14708;50.872;5.306;2023-02-16T07:51:27;20.20;54.40
27188;DHT22;14708;50.872;5.306;2023-02-16T07:53:53;20.10;54.50
27188;DHT22;14708;50.872;5.306;2023-02-16T07:56:29;20.20;54.70
27188;DHT22;14708;50.872;5.306;2023-02-16T07:58:57;20.20;54.90
27188;DHT22;14708;50.872;5.306;2023-02-16T08:01:25;20.20;54.90
27188;DHT22;14708;50.872;5.306;2023-02-16T08:03:50;20.30;54.60
27188;DHT22;14708;50.872;5.306;2023-02-16T08:06:17;20.40;54.70
27188;DHT22;14708;50.872;5.306;2023-02-16T08:08:43;20.30;54.00
27188;DHT22;14708;50.872;5.306;2023-02-16T08:11:18;20.20;54.50
27188;DHT22;14708;50.872;5.306;2023-02-16T08:13:44;20.20;54.70
27188;DHT22;14708;50.872;5.306;2023-02-16T08:16:13;20.10;54.70
27188;DHT22;14708;50.872;5.306;2023-02-16T08:18:39;20.10;54.80
27188;DHT22;14708;50.872;5.306;2023-02-16T08:23:59;20.10;54.80
27188;DHT22;14708;50.872;5.306;2023-02-16T08:26:29;20.10;54.80
27188;DHT22;14708;50.872;5.306;2023-02-16T08:35:46;20.10;54.90
27188;DHT22;14708;50.872;5.306;2023-02-16T08:38:12;20.10;54.90
27188;DHT22;14708;50.872;5.306;2023-02-16T08:40:38;20.10;54.70
27188;DHT22;14708;50.872;5.306;2023-02-16T08:43:03;20.20;54.90
27188;DHT22;14708;50.872;5.306;2023-02-16T08:45:29;20.10;55.00
27188;DHT22;14708;50.872;5.306;2023-02-16T08:47:55;20.10;54.90
27188;DHT22;14708;50.872;5.306;2023-02-16T08:53:46;20.10;54.80
27188;DHT22;14708;50.872;5.306;2023-02-16T08:56:12;20.10;54.70
27188;DHT22;14708;50.872;5.306;2023-02-16T08:58:38;20.10;54.70
27188;DHT22;14708;50.872;5.306;2023-02-16T09:01:05;20.10;54.70
27188;DHT22;14708;50.872;5.306;2023-02-16T09:03:38;20.10;54.90
27188;DHT22;14708;50.872;5.306;2023-02-16T09:06:07;20.20;54.80
27188;DHT22;14708;50.872;5.306;2023-02-16T09:08:35;20.20;55.40
27188;DHT22;14708;50.872;5.306;2023-02-16T09:11:14;20.20;54.90
27188;DHT22;14708;50.872;5.306;2023-02-16T09:13:41;20.10;54.80
27188;DHT22;14708;50.872;5.306;2023-02-16T09:16:27;20.10;55.60
27188;DHT22;14708;50.872;5.306;2023-02-16T09:18:54;20.20;54.60
27188;DHT22;14708;50.872;5.306;2023-02-16T09:24:58;20.20;53.60
27188;DHT22;14708;50.872;5.306;2023-02-16T09:27:24;20.20;53.50
27188;DHT22;14708;50.872;5.306;2023-02-16T09:29:50;20.30;53.40
27188;DHT22;14708;50.872;5.306;2023-02-16T09:32:16;20.30;53.50
27188;DHT22;14708;50.872;5.306;2023-02-16T09:34:42;20.40;53.60
27188;DHT22;14708;50.872;5.306;2023-02-16T09:37:14;20.40;53.40
27188;DHT22;14708;50.872;5.306;2023-02-16T09:40:00;20.40;53.70
27188;DHT22;14708;50.872;5.306;2023-02-16T09:45:06;20.40;54.00
27188;DHT22;14708;50.872;5.306;2023-02-16T09:47:45;20.40;54.30
27188;DHT22;14708;50.872;5.306;2023-02-16T09:50:18;20.30;54.00
27188;DHT22;14708;50.872;5.306;2023-02-16T10:19:30;20.30;54.30
27188;DHT22;14708;50.872;5.306;2023-02-16T10:22:02;20.40;54.10
27188;DHT22;14708;50.872;5.306;2023-02-16T10:24:39;20.40;54.30
27188;DHT22;14708;50.872;5.306;2023-02-16T10:27:12;20.40;54.30
27188;DHT22;14708;50.872;5.306;2023-02-16T10:29:39;20.30;54.50
27188;DHT22;14708;50.872;5.306;2023-02-16T10:32:24;20.30;54.70
27188;DHT22;14708;50.872;5.306;2023-02-16T10:35:02;20.20;54.70
27188;DHT22;14708;50.872;5.306;2023-02-16T10:44:02;20.40;54.70
27188;DHT22;14708;50.872;5.306;2023-02-16T10:46:41;20.40;54.70
27188;DHT22;14708;50.872;5.306;2023-02-16T10:49:20;20.40;54.80
27188;DHT22;14708;50.872;5.306;2023-02-16T10:51:48;20.40;54.70
27188;DHT22;14708;50.872;5.306;2023-02-16T10:54:35;20.40;54.90
27188;DHT22;14708;50.872;5.306;2023-02-16T10:57:04;20.40;54.90
27188;DHT22;14708;50.872;5.306;2023-02-16T11:02:40;20.40;55.30
27188;DHT22;14708;50.872;5.306;2023-02-16T11:07:53;20.40;55.70
27188;DHT22;14708;50.872;5.306;2023-02-16T11:10:35;20.40;55.70
27188;DHT22;14708;50.872;5.306;2023-02-16T11:13:01;20.50;55.50
27188;DHT22;14708;50.872;5.306;2023-02-16T11:15:28;20.50;55.70
27188;DHT22;14708;50.872;5.306;2023-02-16T11:18:05;20.50;55.90
27188;DHT22;14708;50.872;5.306;2023-02-16T11:23:26;20.60;55.90
27188;DHT22;14708;50.872;5.306;2023-02-16T11:26:05;20.60;56.00
27188;DHT22;14708;50.872;5.306;2023-02-16T11:33:54;20.60;56.00
27188;DHT22;14708;50.872;5.306;2023-02-16T11:36:33;20.60;56.10
27188;DHT22;14708;50.872;5.306;2023-02-16T11:39:21;20.60;56.00
27188;DHT22;14708;50.872;5.306;2023-02-16T11:42:01;20.50;56.30
27188;DHT22;14708;50.872;5.306;2023-02-16T11:47:59;20.40;56.60
27188;DHT22;14708;50.872;5.306;2023-02-16T11:50:34;20.50;56.10
27188;DHT22;14708;50.872;5.306;2023-02-16T11:58:41;20.50;56.20
27188;DHT22;14708;50.872;5.306;2023-02-16T12:09:40;20.70;55.40
27188;DHT22;14708;50.872;5.306;2023-02-16T12:12:32;20.60;56.10
27188;DHT22;14708;50.872;5.306;2023-02-16T12:15:35;20.50;56.20
27188;DHT22;14708;50.872;5.306;2023-02-16T12:23:32;20.40;56.30
27188;DHT22;14708;50.872;5.306;2023-02-16T12:26:39;20.30;56.30
27188;DHT22;14708;50.872;5.306;2023-02-16T12:31:48;20.40;56.40
27188;DHT22;14708;50.872;5.306;2023-02-16T12:37:24;20.40;56.30
27188;DHT22;14708;50.872;5.306;2023-02-16T12:45:27;20.40;56.10
27188;DHT22;14708;50.872;5.306;2023-02-16T12:48:18;20.40;56.20
27188;DHT22;14708;50.872;5.306;2023-02-16T12:50:47;20.40;56.30
27188;DHT22;14708;50.872;5.306;2023-02-16T12:56:07;20.40;56.20
27188;DHT22;14708;50.872;5.306;2023-02-16T12:58:41;20.40;56.10
27188;DHT22;14708;50.872;5.306;2023-02-16T13:01:18;20.50;56.10
27188;DHT22;14708;50.872;5.306;2023-02-16T13:03:53;20.50;56.10
27188;DHT22;14708;50.872;5.306;2023-02-16T13:06:29;20.40;55.90
27188;DHT22;14708;50.872;5.306;2023-02-16T13:11:48;20.40;56.10
27188;DHT22;14708;50.872;5.306;2023-02-16T13:14:22;20.40;56.00
27188;DHT22;14708;50.872;5.306;2023-02-16T13:20:16;20.40;56.00
27188;DHT22;14708;50.872;5.306;2023-02-16T13:25:29;20.40;55.90
27188;DHT22;14708;50.872;5.306;2023-02-16T13:39:45;20.40;55.90
27188;DHT22;14708;50.872;5.306;2023-02-16T13:44:57;20.40;56.00
27188;DHT22;14708;50.872;5.306;2023-02-16T13:47:31;20.40;55.90
27188;DHT22;14708;50.872;5.306;2023-02-16T13:50:00;20.40;56.10
27188;DHT22;14708;50.872;5.306;2023-02-16T13:52:32;20.40;55.90
27188;DHT22;14708;50.872;5.306;2023-02-16T13:55:05;20.50;55.80
27188;DHT22;14708;50.872;5.306;2023-02-16T14:00:36;20.50;55.40
27188;DHT22;14708;50.872;5.306;2023-02-16T14:03:11;20.60;55.50
27188;DHT22;14708;50.872;5.306;2023-02-16T14:12:15;20.80;55.30
27188;DHT22;14708;50.872;5.306;2023-02-16T14:25:32;20.70;54.70
27188;DHT22;14708;50.872;5.306;2023-02-16T14:28:49;20.60;54.80
27188;DHT22;14708;50.872;5.306;2023-02-16T14:31:09;20.60;54.80
27188;DHT22;14708;50.872;5.306;2023-02-16T14:39:48;20.50;54.40
27188;DHT22;14708;50.872;5.306;2023-02-16T14:42:17;20.50;53.90
27188;DHT22;14708;50.872;5.306;2023-02-16T14:51:13;20.50;53.90
27188;DHT22;14708;50.872;5.306;2023-02-16T15:03:03;20.50;53.80
27188;DHT22;14708;50.872;5.306;2023-02-16T15:05:35;20.60;53.90
27188;DHT22;14708;50.872;5.306;2023-02-16T15:08:19;20.60;54.60
27188;DHT22;14708;50.872;5.306;2023-02-16T15:10:51;20.60;54.30
27188;DHT22;14708;50.872;5.306;2023-02-16T15:16:31;20.80;54.40
27188;DHT22;14708;50.872;5.306;2023-02-16T15:18:57;20.90;55.00
27188;DHT22;14708;50.872;5.306;2023-02-16T15:21:27;20.90;55.30
27188;DHT22;14708;50.872;5.306;2023-02-16T15:23:58;21.00;55.40
27188;DHT22;14708;50.872;5.306;2023-02-16T15:26:38;21.10;55.50
27188;DHT22;14708;50.872;5.306;2023-02-16T15:29:19;21.10;55.50
27188;DHT22;14708;50.872;5.306;2023-02-16T15:31:47;21.20;55.60
27188;DHT22;14708;50.872;5.306;2023-02-16T15:34:30;21.20;55.60
27188;DHT22;14708;50.872;5.306;2023-02-16T15:40:25;21.20;55.80
27188;DHT22;14708;50.872;5.306;2023-02-16T15:42:53;21.10;56.00
27188;DHT22;14708;50.872;5.306;2023-02-16T15:48:00;21.10;56.20
27188;DHT22;14708;50.872;5.306;2023-02-16T15:50:36;21.10;56.10
27188;DHT22;14708;50.872;5.306;2023-02-16T15:53:02;21.00;55.40
27188;DHT22;14708;50.872;5.306;2023-02-16T15:55:28;20.90;56.00
27188;DHT22;14708;50.872;5.306;2023-02-16T15:57:54;21.00;56.10
27188;DHT22;14708;50.872;5.306;2023-02-16T16:00:21;20.90;56.30
27188;DHT22;14708;50.872;5.306;2023-02-16T16:02:53;20.80;56.60
27188;DHT22;14708;50.872;5.306;2023-02-16T16:05:31;20.80;56.70
27188;DHT22;14708;50.872;5.306;2023-02-16T16:08:01;20.80;57.00
27188;DHT22;14708;50.872;5.306;2023-02-16T16:10:36;20.70;57.30
27188;DHT22;14708;50.872;5.306;2023-02-16T16:13:12;20.70;57.60
27188;DHT22;14708;50.872;5.306;2023-02-16T16:15:41;20.70;57.30
27188;DHT22;14708;50.872;5.306;2023-02-16T16:18:41;20.70;57.80
27188;DHT22;14708;50.872;5.306;2023-02-16T16:23:53;20.80;59.70
27188;DHT22;14708;50.872;5.306;2023-02-16T16:26:23;20.80;60.10
27188;DHT22;14708;50.872;5.306;2023-02-16T16:28:49;20.90;60.40
27188;DHT22;14708;50.872;5.306;2023-02-16T16:31:31;21.00;61.50
27188;DHT22;14708;50.872;5.306;2023-02-16T16:41:45;21.30;57.40
27188;DHT22;14708;50.872;5.306;2023-02-16T16:44:59;21.40;57.10
27188;DHT22;14708;50.872;5.306;2023-02-16T16:47:49;21.50;57.00
27188;DHT22;14708;50.872;5.306;2023-02-16T16:52:57;21.50;56.90
27188;DHT22;14708;50.872;5.306;2023-02-16T16:55:27;21.40;56.90
27188;DHT22;14708;50.872;5.306;2023-02-16T16:57:56;21.40;56.70
27188;DHT22;14708;50.872;5.306;2023-02-16T17:00:25;21.40;57.00
27188;DHT22;14708;50.872;5.306;2023-02-16T17:02:51;21.40;56.70
27188;DHT22;14708;50.872;5.306;2023-02-16T17:08:43;21.40;56.60
27188;DHT22;14708;50.872;5.306;2023-02-16T17:11:31;21.40;56.90
27188;DHT22;14708;50.872;5.306;2023-02-16T17:14:05;21.30;56.90
27188;DHT22;14708;50.872;5.306;2023-02-16T17:16:35;21.30;57.00
27188;DHT22;14708;50.872;5.306;2023-02-16T17:19:02;21.40;57.10
27188;DHT22;14708;50.872;5.306;2023-02-16T17:21:28;21.40;56.90
27188;DHT22;14708;50.872;5.306;2023-02-16T17:23:54;21.50;57.00
27188;DHT22;14708;50.872;5.306;2023-02-16T17:26:20;21.50;57.00
27188;DHT22;14708;50.872;5.306;2023-02-16T17:28:46;21.60;57.10
27188;DHT22;14708;50.872;5.306;2023-02-16T17:31:12;21.80;56.80
27188;DHT22;14708;50.872;5.306;2023-02-16T17:33:42;21.80;56.80
27188;DHT22;14708;50.872;5.306;2023-02-16T17:36:12;21.90;56.80
27188;DHT22;14708;50.872;5.306;2023-02-16T17:38:39;21.90;56.50
27188;DHT22;14708;50.872;5.306;2023-02-16T17:41:06;22.00;56.60
27188;DHT22;14708;50.872;5.306;2023-02-16T17:43:31;22.00;56.60
27188;DHT22;14708;50.872;5.306;2023-02-16T17:45:57;22.00;56.80
27188;DHT22;14708;50.872;5.306;2023-02-16T17:48:28;21.90;56.70
27188;DHT22;14708;50.872;5.306;2023-02-16T17:51:15;21.90;56.70
27188;DHT22;14708;50.872;5.306;2023-02-16T17:53:41;21.90;56.80
27188;DHT22;14708;50.872;5.306;2023-02-16T17:56:10;21.90;56.90
27188;DHT22;14708;50.872;5.306;2023-02-16T17:58:37;21.80;56.70
27188;DHT22;14708;50.872;5.306;2023-02-16T18:01:03;21.80;56.90
27188;DHT22;14708;50.872;5.306;2023-02-16T18:03:29;21.80;56.80
27188;DHT22;14708;50.872;5.306;2023-02-16T18:05:54;21.80;57.00
27188;DHT22;14708;50.872;5.306;2023-02-16T18:08:20;21.90;56.70
27188;DHT22;14708;50.872;5.306;2023-02-16T18:10:48;21.90;56.80
27188;DHT22;14708;50.872;5.306;2023-02-16T18:13:14;22.00;56.70
27188;DHT22;14708;50.872;5.306;2023-02-16T18:15:42;22.10;56.90
27188;DHT22;14708;50.872;5.306;2023-02-16T18:24:53;22.40;56.30
27188;DHT22;14708;50.872;5.306;2023-02-16T18:27:18;22.60;56.40
27188;DHT22;14708;50.872;5.306;2023-02-16T18:29:45;22.60;56.10
27188;DHT22;14708;50.872;5.306;2023-02-16T18:32:11;22.60;56.10
27188;DHT22;14708;50.872;5.306;2023-02-16T18:41:22;22.60;56.30
27188;DHT22;14708;50.872;5.306;2023-02-16T18:43:48;22.50;56.40
27188;DHT22;14708;50.872;5.306;2023-02-16T18:46:13;22.50;56.50
27188;DHT22;14708;50.872;5.306;2023-02-16T18:48:39;22.50;56.60
27188;DHT22;14708;50.872;5.306;2023-02-16T18:51:06;22.50;56.50
27188;DHT22;14708;50.872;5.306;2023-02-16T19:20:27;22.80;56.20
27188;DHT22;14708;50.872;5.306;2023-02-16T19:22:54;22.80;56.40
27188;DHT22;14708;50.872;5.306;2023-02-16T19:25:23;22.80;56.30
27188;DHT22;14708;50.872;5.306;2023-02-16T19:27:53;22.80;56.40
27188;DHT22;14708;50.872;5.306;2023-02-16T19:30:18;22.80;56.50
27188;DHT22;14708;50.872;5.306;2023-02-16T19:32:46;22.70;56.30
27188;DHT22;14708;50.872;5.306;2023-02-16T19:35:12;22.70;56.40
27188;DHT22;14708;50.872;5.306;2023-02-16T19:37:56;22.70;56.70
27188;DHT22;14708;50.872;5.306;2023-02-16T19:40:21;22.60;56.50
27188;DHT22;14708;50.872;5.306;2023-02-16T19:42:47;22.60;56.50
27188;DHT22;14708;50.872;5.306;2023-02-16T19:45:13;22.60;56.50
27188;DHT22;14708;50.872;5.306;2023-02-16T19:47:38;22.60;56.50
27188;DHT22;14708;50.872;5.306;2023-02-16T20:03:32;22.90;56.20
27188;DHT22;14708;50.872;5.306;2023-02-16T20:05:57;22.90;56.30
27188;DHT22;14708;50.872;5.306;2023-02-16T20:08:23;22.90;56.20
27188;DHT22;14708;50.872;5.306;2023-02-16T20:10:49;22.90;56.20
27188;DHT22;14708;50.872;5.306;2023-02-16T20:16:36;22.80;56.50
27188;DHT22;14708;50.872;5.306;2023-02-16T20:19:02;22.80;56.40
27188;DHT22;14708;50.872;5.306;2023-02-16T20:21:28;22.80;56.50
27188;DHT22;14708;50.872;5.306;2023-02-16T20:23:57;22.80;56.50
27188;DHT22;14708;50.872;5.306;2023-02-16T20:26:25;22.80;56.50
27188;DHT22;14708;50.872;5.306;2023-02-16T20:28:51;22.70;56.90
27188;DHT22;14708;50.872;5.306;2023-02-16T20:54:51;22.90;56.20
27188;DHT22;14708;50.872;5.306;2023-02-16T20:57:16;22.90;56.20
27188;DHT22;14708;50.872;5.306;2023-02-16T20:59:42;22.90;56.40
27188;DHT22;14708;50.872;5.306;2023-02-16T21:02:09;22.90;57.00
27188;DHT22;14708;50.872;5.306;2023-02-16T21:04:35;22.80;56.40
27188;DHT22;14708;50.872;5.306;2023-02-16T21:07:04;22.80;56.30
27188;DHT22;14708;50.872;5.306;2023-02-16T21:09:29;22.80;56.40
27188;DHT22;14708;50.872;5.306;2023-02-16T21:11:55;22.80;56.50
27188;DHT22;14708;50.872;5.306;2023-02-16T21:14:20;22.80;56.50
27188;DHT22;14708;50.872;5.306;2023-02-16T21:16:46;22.80;56.30
27188;DHT22;14708;50.872;5.306;2023-02-16T21:26:15;23.10;56.20
27188;DHT22;14708;50.872;5.306;2023-02-16T21:28:41;23.10;56.10
27188;DHT22;14708;50.872;5.306;2023-02-16T21:31:09;23.10;55.20
27188;DHT22;14708;50.872;5.306;2023-02-16T21:33:37;23.20;55.40
27188;DHT22;14708;50.872;5.306;2023-02-16T21:36:10;23.10;55.60
27188;DHT22;14708;50.872;5.306;2023-02-16T21:38:37;23.10;55.70
27188;DHT22;14708;50.872;5.306;2023-02-16T21:41:14;23.00;56.00
27188;DHT22;14708;50.872;5.306;2023-02-16T21:44:06;23.00;56.10
27188;DHT22;14708;50.872;5.306;2023-02-16T21:46:40;22.90;56.10
27188;DHT22;14708;50.872;5.306;2023-02-16T21:49:10;22.80;56.30
27188;DHT22;14708;50.872;5.306;2023-02-16T21:51:38;22.70;56.40
27188;DHT22;14708;50.872;5.306;2023-02-16T21:54:05;22.60;56.50
27188;DHT22;14708;50.872;5.306;2023-02-16T21:59:00;22.50;56.80
27188;DHT22;14708;50.872;5.306;2023-02-16T22:01:29;22.40;56.90
27188;DHT22;14708;50.872;5.306;2023-02-16T22:03:55;22.30;56.80
27188;DHT22;14708;50.872;5.306;2023-02-16T22:06:25;22.30;56.90
27188;DHT22;14708;50.872;5.306;2023-02-16T22:08:51;22.20;57.20
27188;DHT22;14708;50.872;5.306;2023-02-16T22:11:16;22.20;57.10
27188;DHT22;14708;50.872;5.306;2023-02-16T22:13:42;22.10;57.30
27188;DHT22;14708;50.872;5.306;2023-02-16T22:16:13;22.10;57.40
27188;DHT22;14708;50.872;5.306;2023-02-16T22:18:43;22.00;57.30
27188;DHT22;14708;50.872;5.306;2023-02-16T22:24:31;22.00;57.50
27188;DHT22;14708;50.872;5.306;2023-02-16T22:26:56;21.90;57.60
27188;DHT22;14708;50.872;5.306;2023-02-16T22:29:24;21.90;57.50
27188;DHT22;14708;50.872;5.306;2023-02-16T22:31:50;21.80;57.50
27188;DHT22;14708;50.872;5.306;2023-02-16T22:34:18;21.80;57.60
27188;DHT22;14708;50.872;5.306;2023-02-16T22:36:44;21.80;57.50
27188;DHT22;14708;50.872;5.306;2023-02-16T22:39:12;21.80;57.50
27188;DHT22;14708;50.872;5.306;2023-02-16T22:41:37;21.70;57.60
27188;DHT22;14708;50.872;5.306;2023-02-16T22:47:41;21.70;57.70
27188;DHT22;14708;50.872;5.306;2023-02-16T22:50:07;21.70;58.00
27188;DHT22;14708;50.872;5.306;2023-02-16T22:52:32;21.70;58.00
27188;DHT22;14708;50.872;5.306;2023-02-16T22:54:58;21.60;57.80
27188;DHT22;14708;50.872;5.306;2023-02-16T22:57:24;21.60;57.90
27188;DHT22;14708;50.872;5.306;2023-02-16T22:59:52;21.60;57.80
27188;DHT22;14708;50.872;5.306;2023-02-16T23:02:18;21.50;57.80
27188;DHT22;14708;50.872;5.306;2023-02-16T23:04:43;21.60;57.90
27188;DHT22;14708;50.872;5.306;2023-02-16T23:07:09;21.50;57.90
27188;DHT22;14708;50.872;5.306;2023-02-16T23:09:35;21.50;57.80
27188;DHT22;14708;50.872;5.306;2023-02-16T23:12:00;21.50;58.00
27188;DHT22;14708;50.872;5.306;2023-02-16T23:14:26;21.50;58.00
27188;DHT22;14708;50.872;5.306;2023-02-16T23:16:52;21.50;58.00
27188;DHT22;14708;50.872;5.306;2023-02-16T23:19:21;21.50;57.90
27188;DHT22;14708;50.872;5.306;2023-02-16T23:21:54;21.50;57.90
27188;DHT22;14708;50.872;5.306;2023-02-16T23:31:31;21.30;58.10